Palo Verde, California
Current Conditions -  °F | °C
As of 12:52 AM on Wednesday 28 Jan 2015 (Local Time) from KBLH Reporting Station
Clear Clear  
Wind Chill: 55°   Ceiling: Unl
Heat Index: 55°   Visibility: 10mi
Dew Point: 53°   Wind: 13mph
Humidity: 93%   Direction: 250°WSW
Pressure: 30.18"   Gusts: NA
Location:  33.43°N, 114.73°W
Report Text: KBLH 280852Z AUTO 25011KT 10SM CLR 13/12 A3018 RMK AO2 SLP216 T01280117 55001
Loading
Personal Weather Stations






























Interactive Weather Map New forecast layout! Learn more

10-Day Weather Forecast

Advertisements
Track Severe Weather on mobile